createdAt,value
2023-05-21T00:00:55.520Z,13.43
2023-05-21T00:01:57.034Z,13.42
2023-05-21T00:02:59.276Z,13.37
2023-05-21T00:04:01.151Z,13.31
2023-05-21T00:05:02.796Z,13.16
2023-05-21T00:06:04.575Z,13.27
2023-05-21T00:07:06.920Z,13.29
2023-05-21T00:08:08.683Z,13.52
2023-05-21T00:09:12.760Z,13.46
2023-05-21T00:10:14.466Z,13.49
2023-05-21T00:11:16.145Z,13.37
2023-05-21T00:12:17.770Z,13.35
2023-05-21T00:13:19.484Z,13.29
2023-05-21T00:14:21.120Z,13.38
2023-05-21T00:15:22.740Z,13.53
2023-05-21T00:16:25.390Z,13.39
2023-05-21T00:17:28.540Z,13.34
2023-05-21T00:18:32.248Z,13.22
2023-05-21T00:19:33.992Z,13.10
2023-05-21T00:20:35.688Z,13.09
2023-05-21T00:21:38.206Z,13.12
2023-05-21T00:22:40.372Z,13.14
2023-05-21T00:23:42.760Z,13.09
2023-05-21T00:24:47.187Z,13.10
2023-05-21T00:25:50.427Z,13.07
2023-05-21T00:26:52.124Z,13.01
2023-05-21T00:27:55.087Z,13.04
2023-05-21T00:28:56.857Z,13.03
2023-05-21T00:29:58.549Z,13.17
2023-05-21T00:31:00.218Z,13.21
2023-05-21T00:32:01.964Z,13.02
2023-05-21T00:33:04.132Z,13.08
2023-05-21T00:34:05.913Z,13.02
2023-05-21T00:35:08.226Z,12.99
2023-05-21T00:36:10.368Z,12.94
2023-05-21T00:37:11.952Z,12.83
2023-05-21T00:38:14.349Z,12.76
2023-05-21T00:39:16.098Z,12.73
2023-05-21T00:40:18.199Z,12.71
2023-05-21T00:41:19.943Z,12.67
2023-05-21T00:42:27.272Z,12.58
2023-05-21T00:43:28.998Z,12.57
2023-05-21T00:44:34.197Z,12.53
2023-05-21T00:45:37.337Z,12.54
2023-05-21T00:46:39.795Z,12.59
2023-05-21T00:47:42.276Z,12.68
2023-05-21T00:48:45.204Z,12.68
2023-05-21T00:49:48.258Z,12.56
2023-05-21T00:50:50.372Z,12.67
2023-05-21T00:51:53.013Z,12.85
2023-05-21T00:52:54.700Z,12.90
2023-05-21T00:53:56.972Z,12.77
2023-05-21T00:54:58.805Z,12.71
2023-05-21T00:56:01.314Z,12.66
2023-05-21T00:57:04.006Z,12.76
2023-05-21T00:58:06.567Z,12.70
2023-05-21T00:59:08.450Z,12.65
2023-05-21T01:00:12.141Z,12.59
2023-05-21T01:01:16.049Z,12.56
2023-05-21T01:02:20.781Z,12.50
2023-05-21T01:03:23.210Z,12.57
2023-05-21T01:04:24.770Z,12.54
2023-05-21T01:05:29.661Z,12.52
2023-05-21T01:06:34.693Z,12.47
2023-05-21T01:07:39.012Z,12.51
2023-05-21T01:08:41.878Z,12.48
2023-05-21T01:09:43.628Z,12.50
2023-05-21T01:10:45.255Z,12.40
2023-05-21T01:11:50.101Z,12.36
2023-05-21T01:12:52.669Z,12.51
2023-05-21T01:13:54.285Z,12.61
2023-05-21T01:14:56.234Z,12.61
2023-05-21T01:15:59.165Z,12.60
2023-05-21T01:17:02.218Z,12.60
2023-05-21T01:18:04.252Z,12.57
2023-05-21T01:19:07.115Z,12.58
2023-05-21T01:20:11.969Z,12.52
2023-05-21T01:21:17.289Z,12.48
2023-05-21T01:22:21.730Z,12.31
2023-05-21T01:23:23.630Z,12.36
2023-05-21T01:24:25.452Z,12.28
2023-05-21T01:25:27.108Z,12.24
2023-05-21T01:26:30.393Z,12.24
2023-05-21T01:27:32.012Z,12.22
2023-05-21T01:28:34.569Z,12.42
2023-05-21T01:29:36.289Z,12.34
2023-05-21T01:30:39.762Z,12.34
2023-05-21T01:32:10.073Z,12.25
2023-05-21T01:33:20.300Z,12.30
2023-05-21T01:34:26.743Z,12.32
2023-05-21T01:35:32.923Z,12.24
2023-05-21T01:36:40.922Z,12.13
2023-05-21T01:37:55.202Z,12.10
2023-05-21T01:39:14.836Z,12.08
2023-05-21T01:40:35.419Z,12.05
2023-05-21T01:41:38.776Z,12.04
2023-05-21T01:42:44.043Z,11.99
2023-05-21T01:43:46.567Z,11.97
2023-05-21T01:44:48.651Z,11.93
2023-05-21T01:45:54.728Z,11.90
2023-05-21T01:46:57.031Z,11.88
2023-05-21T01:47:58.716Z,11.89
2023-05-21T01:49:00.644Z,11.85
2023-05-21T01:50:03.764Z,11.83
2023-05-21T01:51:05.945Z,11.82
2023-05-21T01:52:07.517Z,11.77
2023-05-21T01:53:09.109Z,11.74
2023-05-21T01:54:10.738Z,11.76
2023-05-21T01:55:13.543Z,11.78
2023-05-21T01:56:15.957Z,11.84
2023-05-21T01:57:18.557Z,11.85
2023-05-21T01:58:21.168Z,11.95
2023-05-21T01:59:22.848Z,12.04
2023-05-21T02:00:28.249Z,12.04
2023-05-21T02:01:30.510Z,12.02
2023-05-21T02:02:32.399Z,11.99
2023-05-21T02:03:35.011Z,12.05
2023-05-21T02:04:37.331Z,12.21
2023-05-21T02:05:39.036Z,12.26
2023-05-21T02:06:41.768Z,12.17
2023-05-21T02:07:45.279Z,12.15
2023-05-21T02:08:48.449Z,12.17
2023-05-21T02:09:50.071Z,12.22
2023-05-21T02:10:52.374Z,12.21
2023-05-21T02:11:55.455Z,12.33
2023-05-21T02:12:57.082Z,12.30
2023-05-21T02:13:58.679Z,12.20
2023-05-21T02:15:00.276Z,12.16
2023-05-21T02:16:02.318Z,12.16
2023-05-21T02:17:04.097Z,12.28
2023-05-21T02:18:05.854Z,12.30
2023-05-21T02:19:10.407Z,12.33
2023-05-21T02:20:13.555Z,12.27
2023-05-21T02:21:15.580Z,12.23
2023-05-21T02:22:17.237Z,12.17
2023-05-21T02:23:18.817Z,12.19
2023-05-21T02:24:22.247Z,12.20
2023-05-21T02:25:24.101Z,12.29
2023-05-21T02:26:25.794Z,12.30
2023-05-21T02:27:29.018Z,12.29
2023-05-21T02:28:30.839Z,12.33
2023-05-21T02:29:32.873Z,12.45
2023-05-21T02:30:34.455Z,12.47
2023-05-21T02:31:36.048Z,12.33
2023-05-21T02:32:39.746Z,12.28
2023-05-21T02:33:42.065Z,12.25
2023-05-21T02:34:45.068Z,12.22
2023-05-21T02:35:46.848Z,12.23
2023-05-21T02:36:48.501Z,12.28
2023-05-21T02:37:50.125Z,12.21
2023-05-21T02:38:51.742Z,12.14
2023-05-21T02:39:56.611Z,12.09
2023-05-21T02:40:58.866Z,12.04
2023-05-21T02:42:00.718Z,12.03
2023-05-21T02:43:02.357Z,12.03
2023-05-21T02:44:06.199Z,12.03
2023-05-21T02:45:09.263Z,12.17
2023-05-21T02:46:11.546Z,12.12
2023-05-21T02:47:13.181Z,12.15
2023-05-21T02:48:14.946Z,12.14
2023-05-21T02:49:17.042Z,12.12
2023-05-21T02:50:22.745Z,12.10
2023-05-21T02:51:33.475Z,12.13
2023-05-21T02:52:35.482Z,12.27
2023-05-21T02:53:37.349Z,12.22
2023-05-21T02:54:39.354Z,12.17
2023-05-21T02:55:42.053Z,12.12
2023-05-21T02:56:43.729Z,12.07
2023-05-21T02:57:45.574Z,12.08
2023-05-21T02:58:47.256Z,12.11
2023-05-21T02:59:48.908Z,12.02
2023-05-21T03:00:50.805Z,11.98
2023-05-21T03:01:52.573Z,12.02
2023-05-21T03:02:54.371Z,12.07
2023-05-21T03:03:56.207Z,12.21
2023-05-21T03:04:58.978Z,12.13
2023-05-21T03:06:00.481Z,12.09
2023-05-21T03:07:02.293Z,12.04
2023-05-21T03:08:03.981Z,12.02
2023-05-21T03:09:06.001Z,12.04
2023-05-21T03:10:07.786Z,12.02
2023-05-21T03:11:09.976Z,12.01
2023-05-21T03:12:11.751Z,12.11
2023-05-21T03:13:13.482Z,12.14
2023-05-21T03:14:16.242Z,12.14
2023-05-21T03:15:18.182Z,12.10
2023-05-21T03:16:19.911Z,12.10
2023-05-21T03:17:22.236Z,12.04
2023-05-21T03:18:24.230Z,12.06
2023-05-21T03:19:26.443Z,12.03
2023-05-21T03:20:28.916Z,11.98
2023-05-21T03:21:32.204Z,12.01
2023-05-21T03:22:33.834Z,12.02
2023-05-21T03:23:35.575Z,12.16
2023-05-21T03:24:41.374Z,12.18
2023-05-21T03:25:44.084Z,12.21
2023-05-21T03:26:48.169Z,12.11
2023-05-21T03:27:49.968Z,12.04
2023-05-21T03:29:21.105Z,11.93
2023-05-21T03:30:22.897Z,12.06
2023-05-21T03:31:42.808Z,11.93
2023-05-21T03:32:47.175Z,12.02
2023-05-21T03:33:48.842Z,11.97
2023-05-21T03:34:56.252Z,11.90
2023-05-21T03:35:58.981Z,12.02
2023-05-21T03:37:03.236Z,11.96
2023-05-21T03:38:06.180Z,11.89
2023-05-21T03:39:07.805Z,11.85
2023-05-21T03:40:10.694Z,11.80
2023-05-21T03:41:13.459Z,12.01
2023-05-21T03:42:17.210Z,11.96
2023-05-21T03:43:26.387Z,11.89
2023-05-21T03:44:28.439Z,11.87
2023-05-21T03:45:35.816Z,11.83
2023-05-21T03:46:46.619Z,11.81
2023-05-21T03:47:55.390Z,11.82
2023-05-21T03:48:58.266Z,11.76
2023-05-21T03:50:01.705Z,11.70
2023-05-21T03:51:04.050Z,11.65
2023-05-21T03:52:06.133Z,11.59
2023-05-21T03:53:07.908Z,11.59
2023-05-21T03:54:09.539Z,11.55
2023-05-21T03:55:12.523Z,11.54
2023-05-21T03:56:14.204Z,11.52
2023-05-21T03:57:16.680Z,11.52
2023-05-21T03:58:23.194Z,11.54
2023-05-21T03:59:24.886Z,11.51
2023-05-21T04:00:26.853Z,11.51
2023-05-21T04:01:28.767Z,11.54
2023-05-21T04:02:32.398Z,11.51
2023-05-21T04:03:35.953Z,11.52
2023-05-21T04:04:39.668Z,11.53
2023-05-21T04:05:44.733Z,11.53
2023-05-21T04:06:48.274Z,11.62
2023-05-21T04:07:50.067Z,11.73
2023-05-21T04:08:52.249Z,11.73
2023-05-21T04:09:53.880Z,11.86
2023-05-21T04:10:55.615Z,11.82
2023-05-21T04:11:57.801Z,11.88
2023-05-21T04:12:59.402Z,11.87
2023-05-21T04:14:01.620Z,11.88
2023-05-21T04:15:04.571Z,12.02
2023-05-21T04:16:09.100Z,11.99
2023-05-21T04:17:12.732Z,12.12
2023-05-21T04:18:16.611Z,12.16
2023-05-21T04:19:18.408Z,12.13
2023-05-21T04:20:20.719Z,12.09
2023-05-21T04:21:22.434Z,12.07
2023-05-21T04:22:26.606Z,12.03
2023-05-21T04:23:28.390Z,12.03
2023-05-21T04:24:31.842Z,12.01
2023-05-21T04:25:45.328Z,12.04
2023-05-21T04:26:48.092Z,12.02
2023-05-21T04:27:50.545Z,11.98
2023-05-21T04:28:54.023Z,12.08
2023-05-21T04:29:55.780Z,12.07
2023-05-21T04:30:59.059Z,12.05
2023-05-21T04:32:00.777Z,12.05
2023-05-21T04:33:03.162Z,12.11
2023-05-21T04:34:05.118Z,12.13
2023-05-21T04:35:07.262Z,12.29
2023-05-21T04:36:10.552Z,12.28
2023-05-21T04:37:12.298Z,12.24
2023-05-21T04:38:14.111Z,12.27
2023-05-21T04:39:16.885Z,12.30
2023-05-21T04:40:18.635Z,12.25
2023-05-21T04:41:21.263Z,12.28
2023-05-21T04:42:26.209Z,12.36
2023-05-21T04:43:30.399Z,12.36
2023-05-21T04:44:33.731Z,12.42
2023-05-21T04:45:36.009Z,12.40
2023-05-21T04:46:39.676Z,12.43
2023-05-21T04:47:43.641Z,12.42
2023-05-21T04:48:46.760Z,12.48
2023-05-21T04:49:48.410Z,12.48
2023-05-21T04:50:50.854Z,12.59
2023-05-21T04:51:52.402Z,12.59
2023-05-21T04:52:55.081Z,12.65
2023-05-21T04:53:58.084Z,12.72
2023-05-21T04:54:59.698Z,12.83
2023-05-21T04:56:03.166Z,12.79
2023-05-21T04:57:06.427Z,12.79
2023-05-21T04:58:12.381Z,12.79
2023-05-21T04:59:14.960Z,12.86
2023-05-21T05:00:17.445Z,12.87
2023-05-21T05:01:23.739Z,12.95
2023-05-21T05:02:25.507Z,12.90
2023-05-21T05:03:27.281Z,12.94
2023-05-21T05:04:28.989Z,12.90
2023-05-21T05:05:30.991Z,12.92
2023-05-21T05:06:32.745Z,13.05
2023-05-21T05:07:34.394Z,13.05
2023-05-21T05:08:36.243Z,13.01
2023-05-21T05:09:38.632Z,13.17
2023-05-21T05:10:40.282Z,13.24
2023-05-21T05:11:41.916Z,13.17
2023-05-21T05:12:43.597Z,13.17
2023-05-21T05:13:45.199Z,13.08
2023-05-21T05:14:46.930Z,13.11
2023-05-21T05:15:50.243Z,13.12
2023-05-21T05:16:54.348Z,13.23
2023-05-21T05:17:56.671Z,13.35
2023-05-21T05:18:58.453Z,13.30
2023-05-21T05:20:00.990Z,13.33
2023-05-21T05:21:03.620Z,13.40
2023-05-21T05:22:05.450Z,13.40
2023-05-21T05:23:07.578Z,13.49
2023-05-21T05:24:09.171Z,13.57
2023-05-21T05:25:10.883Z,13.53
2023-05-21T05:26:12.682Z,13.56
2023-05-21T05:27:14.884Z,13.58
2023-05-21T05:28:16.650Z,13.67
2023-05-21T05:29:18.330Z,13.57
2023-05-21T05:30:20.753Z,13.63
2023-05-21T05:31:22.323Z,13.67
2023-05-21T05:32:24.063Z,13.81
2023-05-21T05:33:26.011Z,13.78
2023-05-21T05:34:28.120Z,13.88
2023-05-21T05:35:29.809Z,13.79
2023-05-21T05:36:31.603Z,13.84
2023-05-21T05:37:33.646Z,13.88
2023-05-21T05:38:36.242Z,14.02
2023-05-21T05:39:38.117Z,14.13
2023-05-21T05:40:39.888Z,14.08
2023-05-21T05:41:41.526Z,14.09
2023-05-21T05:42:43.260Z,14.28
2023-05-21T05:43:49.045Z,14.35
2023-05-21T05:44:51.528Z,14.49
2023-05-21T05:45:53.196Z,14.34
2023-05-21T05:46:54.878Z,14.38
2023-05-21T05:47:56.604Z,14.58
2023-05-21T05:48:58.257Z,14.69
2023-05-21T05:49:59.894Z,14.70
2023-05-21T05:51:01.829Z,14.70
2023-05-21T05:52:03.678Z,14.77
2023-05-21T05:53:05.536Z,14.98
2023-05-21T05:54:07.156Z,14.86
2023-05-21T05:55:11.901Z,14.88
2023-05-21T05:56:13.524Z,14.78
2023-05-21T05:57:15.872Z,15.01
2023-05-21T05:58:19.512Z,15.16
2023-05-21T05:59:33.768Z,14.98
2023-05-21T06:00:36.689Z,15.12
2023-05-21T06:01:38.898Z,15.24
2023-05-21T06:02:41.252Z,15.32
2023-05-21T06:03:44.254Z,15.32
2023-05-21T06:04:54.702Z,15.18
2023-05-21T06:05:56.385Z,15.21
2023-05-21T06:06:59.920Z,15.36
2023-05-21T06:08:01.788Z,15.34
2023-05-21T06:09:03.492Z,15.34
2023-05-21T06:10:08.581Z,15.40
2023-05-21T06:11:10.969Z,15.32
2023-05-21T06:12:15.907Z,15.50
2023-05-21T06:13:17.597Z,15.46
2023-05-21T06:14:19.887Z,15.43
2023-05-21T06:15:21.572Z,15.51
2023-05-21T06:16:23.252Z,15.68
2023-05-21T06:17:25.044Z,15.68
2023-05-21T06:18:27.794Z,15.79
2023-05-21T06:19:29.473Z,15.96
2023-05-21T06:20:31.166Z,15.89
2023-05-21T06:21:33.698Z,15.85
2023-05-21T06:22:37.007Z,15.81
2023-05-21T06:23:40.097Z,15.91
2023-05-21T06:24:42.005Z,16.02
2023-05-21T06:25:44.481Z,16.17
2023-05-21T06:26:46.426Z,16.20
2023-05-21T06:27:48.073Z,16.16
2023-05-21T06:28:55.405Z,16.43
2023-05-21T06:29:57.369Z,16.43
2023-05-21T06:30:59.016Z,16.38
2023-05-21T06:32:01.747Z,16.17
2023-05-21T06:33:03.664Z,16.28
2023-05-21T06:34:05.721Z,16.42
2023-05-21T06:35:08.264Z,16.38
2023-05-21T06:36:10.041Z,16.67
2023-05-21T06:37:11.697Z,16.53
2023-05-21T06:38:13.356Z,16.38
2023-05-21T06:39:15.057Z,16.78
2023-05-21T06:40:16.958Z,16.74
2023-05-21T06:41:18.616Z,17.14
2023-05-21T06:42:27.006Z,17.23
2023-05-21T06:43:48.701Z,17.17
2023-05-21T06:45:09.314Z,17.54
2023-05-21T06:46:17.621Z,17.97
2023-05-21T06:47:20.919Z,17.98
2023-05-21T06:48:22.584Z,18.02
2023-05-21T06:49:24.428Z,18.33
2023-05-21T06:50:26.397Z,18.64
2023-05-21T06:51:28.439Z,18.48
2023-05-21T06:52:31.760Z,18.20
2023-05-21T06:53:33.583Z,18.34
2023-05-21T06:54:35.524Z,18.39
2023-05-21T06:55:37.440Z,17.86
2023-05-21T06:57:08.943Z,18.13
2023-05-21T06:58:11.468Z,18.02
2023-05-21T06:59:13.149Z,17.93
2023-05-21T07:00:16.308Z,18.06
2023-05-21T07:01:18.051Z,18.07
2023-05-21T07:02:20.267Z,17.85
2023-05-21T07:03:22.860Z,18.00
2023-05-21T07:04:24.556Z,17.89
2023-05-21T07:05:26.181Z,18.23
2023-05-21T07:06:29.548Z,18.25
2023-05-21T07:07:34.765Z,18.43
2023-05-21T07:08:36.489Z,18.24
2023-05-21T07:09:38.417Z,18.29
2023-05-21T07:10:40.693Z,18.18
2023-05-21T07:11:42.377Z,18.06
2023-05-21T07:12:44.739Z,17.76
2023-05-21T07:13:46.364Z,17.83
2023-05-21T07:14:48.233Z,18.31
2023-05-21T07:15:50.016Z,18.14
2023-05-21T07:16:51.722Z,18.06
2023-05-21T07:17:53.398Z,18.37
2023-05-21T07:18:55.365Z,18.37
2023-05-21T07:19:57.034Z,18.47
2023-05-21T07:20:59.527Z,18.54
2023-05-21T07:22:01.740Z,18.36
2023-05-21T07:23:03.454Z,18.52
2023-05-21T07:24:05.149Z,18.64
2023-05-21T07:25:07.512Z,18.73
2023-05-21T07:26:10.192Z,18.97
2023-05-21T07:27:24.879Z,18.79
2023-05-21T07:28:27.848Z,19.23
2023-05-21T07:29:29.530Z,19.14
2023-05-21T07:30:31.231Z,19.24
2023-05-21T07:31:33.395Z,18.98
2023-05-21T07:32:35.512Z,18.85
2023-05-21T07:33:37.245Z,18.98
2023-05-21T07:34:38.855Z,19.09
2023-05-21T07:35:40.977Z,18.87
2023-05-21T07:36:42.661Z,19.03
2023-05-21T07:37:44.380Z,18.85
2023-05-21T07:38:46.151Z,18.93
2023-05-21T07:39:48.078Z,19.18
2023-05-21T07:40:49.754Z,19.10
2023-05-21T07:41:51.383Z,19.34
2023-05-21T07:42:53.100Z,19.39
2023-05-21T07:43:57.161Z,19.54
2023-05-21T07:44:58.862Z,19.63
2023-05-21T07:46:02.014Z,19.34
2023-05-21T07:47:04.855Z,19.65
2023-05-21T07:48:06.935Z,19.52
2023-05-21T07:49:16.485Z,19.70
2023-05-21T07:50:19.356Z,19.66
2023-05-21T07:51:21.057Z,19.83
2023-05-21T07:52:22.807Z,19.84
2023-05-21T07:53:24.585Z,19.99
2023-05-21T07:54:26.439Z,20.12
2023-05-21T07:55:28.336Z,20.04
2023-05-21T07:56:30.194Z,19.89
2023-05-21T07:57:31.973Z,20.18
2023-05-21T07:58:39.409Z,19.83
2023-05-21T07:59:41.040Z,19.63
2023-05-21T08:00:44.947Z,19.64
2023-05-21T08:01:46.887Z,19.77
2023-05-21T08:02:48.631Z,19.61
2023-05-21T08:03:50.956Z,19.69
2023-05-21T08:04:52.853Z,20.07
2023-05-21T08:05:54.657Z,19.87
2023-05-21T08:06:56.795Z,19.86
2023-05-21T08:07:58.427Z,19.99
2023-05-21T08:09:03.793Z,19.74
2023-05-21T08:10:06.407Z,19.76
2023-05-21T08:11:07.951Z,20.03
2023-05-21T08:12:10.031Z,19.72
2023-05-21T08:13:12.848Z,20.12
2023-05-21T08:14:14.621Z,20.29
2023-05-21T08:15:16.589Z,20.54
2023-05-21T08:16:21.359Z,20.54
2023-05-21T08:17:23.106Z,20.68
2023-05-21T08:18:25.416Z,20.89
2023-05-21T08:19:29.292Z,20.91
2023-05-21T08:20:32.622Z,20.65
2023-05-21T08:21:35.518Z,20.88
2023-05-21T08:22:37.174Z,21.39
2023-05-21T08:23:38.821Z,21.48
2023-05-21T08:24:41.342Z,21.55
2023-05-21T08:25:43.057Z,21.68
2023-05-21T08:26:47.447Z,21.81
2023-05-21T08:27:51.603Z,21.99
2023-05-21T08:28:54.230Z,22.07
2023-05-21T08:29:56.122Z,22.17
2023-05-21T08:30:57.930Z,22.32
2023-05-21T08:31:59.941Z,22.48
2023-05-21T08:33:02.502Z,22.45
2023-05-21T08:34:06.299Z,22.66
2023-05-21T08:35:18.379Z,22.69
2023-05-21T08:36:38.730Z,22.62
2023-05-21T08:37:50.239Z,22.79
2023-05-21T08:39:17.706Z,23.01
2023-05-21T08:40:19.379Z,23.07
2023-05-21T08:41:24.483Z,22.80
2023-05-21T08:42:42.633Z,23.10
2023-05-21T08:43:50.410Z,23.21
2023-05-21T08:44:55.093Z,23.54
2023-05-21T08:45:59.196Z,23.38
2023-05-21T08:47:06.742Z,23.71
2023-05-21T08:48:11.449Z,23.71
2023-05-21T08:49:17.556Z,23.60
2023-05-21T08:50:19.628Z,23.67
2023-05-21T08:51:22.589Z,24.21
2023-05-21T08:52:26.947Z,24.13
2023-05-21T08:53:29.314Z,24.00
2023-05-21T08:54:32.692Z,24.48
2023-05-21T08:55:35.359Z,24.70
2023-05-21T08:56:37.015Z,24.82
2023-05-21T08:57:43.389Z,24.50
2023-05-21T08:58:46.889Z,24.27
2023-05-21T08:59:51.194Z,23.74
2023-05-21T09:00:59.021Z,23.86
2023-05-21T09:02:03.601Z,24.08
2023-05-21T09:03:12.418Z,24.31
2023-05-21T09:04:21.387Z,24.44
2023-05-21T09:05:27.159Z,24.44
2023-05-21T09:06:29.308Z,25.15
2023-05-21T09:07:41.395Z,24.90
2023-05-21T09:09:17.096Z,25.58
2023-05-21T09:10:24.728Z,25.41
2023-05-21T09:11:26.790Z,25.84
2023-05-21T09:12:32.273Z,26.13
2023-05-21T09:13:38.834Z,26.60
2023-05-21T09:14:46.165Z,26.51
2023-05-21T09:15:51.695Z,26.54
2023-05-21T09:16:54.914Z,26.11
2023-05-21T09:17:57.547Z,25.60
2023-05-21T09:19:23.016Z,25.93
2023-05-21T09:20:26.600Z,26.30
2023-05-21T09:21:33.267Z,26.24
2023-05-21T09:22:41.811Z,26.25
2023-05-21T09:23:44.620Z,26.90
2023-05-21T09:24:47.925Z,27.58
2023-05-21T09:25:51.883Z,28.13
2023-05-21T09:27:03.298Z,27.87
2023-05-21T09:28:15.409Z,27.47
2023-05-21T09:29:17.121Z,27.88
2023-05-21T09:30:21.861Z,27.96
2023-05-21T09:31:29.443Z,28.15
2023-05-21T09:32:31.310Z,28.59
2023-05-21T09:33:33.141Z,28.41
2023-05-21T09:34:36.784Z,28.37
2023-05-21T09:35:45.007Z,28.72
2023-05-21T09:36:48.592Z,28.61
2023-05-21T09:37:52.855Z,28.58
2023-05-21T09:38:55.729Z,28.46
2023-05-21T09:39:57.340Z,28.79
2023-05-21T09:40:59.677Z,29.47
2023-05-21T09:42:02.476Z,29.81
2023-05-21T09:43:05.113Z,30.46
2023-05-21T09:44:06.835Z,30.21
2023-05-21T09:45:11.116Z,30.30
2023-05-21T09:46:13.081Z,29.70
2023-05-21T09:47:19.664Z,29.78
2023-05-21T09:48:37.798Z,29.83
2023-05-21T09:49:44.045Z,30.04
2023-05-21T09:50:45.893Z,29.71
2023-05-21T09:51:47.523Z,29.72
2023-05-21T09:52:51.047Z,29.64
2023-05-21T09:53:58.605Z,30.25
2023-05-21T09:55:00.227Z,30.34
2023-05-21T09:56:04.117Z,29.78
2023-05-21T09:57:06.023Z,30.28
2023-05-21T09:58:08.300Z,30.03
2023-05-21T09:59:09.934Z,29.80
2023-05-21T10:00:18.615Z,29.52
2023-05-21T10:01:21.307Z,30.69
2023-05-21T10:02:24.620Z,30.75
2023-05-21T10:03:28.397Z,30.69
2023-05-21T10:04:31.586Z,31.12
2023-05-21T10:05:33.629Z,31.04
2023-05-21T10:06:38.079Z,31.68
2023-05-21T10:07:42.372Z,30.93
2023-05-21T10:08:45.501Z,31.36
2023-05-21T10:09:50.694Z,30.63
2023-05-21T10:10:52.336Z,30.52
2023-05-21T10:11:54.492Z,30.42
2023-05-21T10:12:59.893Z,30.22
2023-05-21T10:14:06.185Z,30.22
2023-05-21T10:15:09.501Z,30.50
2023-05-21T10:16:11.539Z,30.18
2023-05-21T10:17:13.757Z,30.28
2023-05-21T10:18:16.432Z,29.23
2023-05-21T10:19:19.038Z,29.34
2023-05-21T10:20:21.205Z,29.23
2023-05-21T10:21:23.516Z,28.63
2023-05-21T10:22:25.629Z,29.17
2023-05-21T10:23:27.364Z,29.21
2023-05-21T10:24:29.028Z,28.20
2023-05-21T10:25:31.486Z,28.37
2023-05-21T10:26:33.320Z,28.50
2023-05-21T10:27:36.532Z,28.11
2023-05-21T10:28:38.449Z,28.10
2023-05-21T10:29:41.789Z,28.23
2023-05-21T10:30:43.570Z,28.84
2023-05-21T10:31:49.664Z,28.60
2023-05-21T10:32:51.869Z,28.46
2023-05-21T10:33:53.672Z,28.75
2023-05-21T10:34:56.066Z,28.58
2023-05-21T10:35:58.501Z,28.98
2023-05-21T10:37:02.377Z,29.28
2023-05-21T10:38:04.710Z,29.28
2023-05-21T10:39:07.893Z,29.61
2023-05-21T10:40:10.164Z,29.09
2023-05-21T10:41:12.479Z,28.97
2023-05-21T10:42:32.125Z,28.86
2023-05-21T10:44:07.365Z,28.51
2023-05-21T10:45:32.522Z,28.89
2023-05-21T10:46:59.065Z,28.79
2023-05-21T10:48:05.106Z,28.46
2023-05-21T10:49:12.439Z,28.47
2023-05-21T10:51:08.235Z,28.30
2023-05-21T10:52:51.423Z,27.84
2023-05-21T10:54:27.708Z,27.50
2023-05-21T10:55:34.965Z,27.66
2023-05-21T10:56:46.849Z,27.65
2023-05-21T10:58:00.337Z,27.86
2023-05-21T10:59:30.537Z,27.71
2023-05-21T11:00:32.320Z,27.35
2023-05-21T11:01:37.486Z,27.77
2023-05-21T11:02:39.337Z,28.42
2023-05-21T11:03:41.169Z,28.42
2023-05-21T11:04:48.862Z,28.98
2023-05-21T11:05:56.830Z,28.82
2023-05-21T11:06:59.158Z,28.81
2023-05-21T11:08:02.352Z,28.26
2023-05-21T11:09:14.115Z,27.76
2023-05-21T11:10:45.313Z,27.43
2023-05-21T11:11:51.273Z,27.48
2023-05-21T11:13:06.232Z,27.10
2023-05-21T11:14:26.305Z,27.54
2023-05-21T11:15:27.985Z,27.81
2023-05-21T11:16:29.811Z,27.93
2023-05-21T11:17:41.989Z,27.99
2023-05-21T11:18:46.313Z,27.52
2023-05-21T11:19:48.041Z,27.07
2023-05-21T11:20:52.254Z,27.33
2023-05-21T11:21:55.433Z,27.17
2023-05-21T11:22:58.241Z,26.89
2023-05-21T11:24:05.179Z,26.64
2023-05-21T11:25:07.253Z,26.52
2023-05-21T11:26:08.860Z,26.56
2023-05-21T11:27:12.403Z,26.30
2023-05-21T11:28:14.089Z,26.49
2023-05-21T11:29:16.153Z,26.45
2023-05-21T11:30:19.535Z,26.51
2023-05-21T11:31:28.057Z,26.35
2023-05-21T11:32:29.830Z,26.29
2023-05-21T11:33:31.547Z,26.10
2023-05-21T11:34:39.413Z,26.16
2023-05-21T11:35:50.109Z,25.56
2023-05-21T11:37:23.121Z,25.66
2023-05-21T11:38:28.402Z,25.99
2023-05-21T11:39:30.004Z,26.06
2023-05-21T11:40:31.807Z,26.21
2023-05-21T11:42:01.560Z,25.88
2023-05-21T11:43:04.828Z,26.21
2023-05-21T11:44:08.839Z,26.44
2023-05-21T11:45:10.956Z,26.10
2023-05-21T11:46:14.171Z,25.94
2023-05-21T11:47:18.412Z,25.94
2023-05-21T11:48:21.626Z,25.58
2023-05-21T11:49:23.263Z,25.49
2023-05-21T11:50:25.802Z,25.49
2023-05-21T11:51:27.581Z,25.39
2023-05-21T11:52:30.587Z,25.45
2023-05-21T11:53:32.228Z,25.40
2023-05-21T11:54:39.307Z,25.41
2023-05-21T11:55:47.300Z,25.49
2023-05-21T11:56:48.932Z,25.47
2023-05-21T11:57:53.432Z,25.56
2023-05-21T11:58:55.898Z,25.52
2023-05-21T12:00:01.566Z,25.80
2023-05-21T12:01:03.472Z,26.14
2023-05-21T12:02:05.508Z,25.80
2023-05-21T12:03:08.284Z,25.63
2023-05-21T12:04:13.553Z,25.50
2023-05-21T12:05:18.790Z,25.60
2023-05-21T12:06:26.764Z,25.61
2023-05-21T12:07:31.809Z,25.81
2023-05-21T12:08:33.408Z,25.61
2023-05-21T12:09:48.128Z,25.45
2023-05-21T12:11:03.620Z,25.56
2023-05-21T12:12:06.461Z,25.30
2023-05-21T12:13:08.129Z,25.23
2023-05-21T12:14:10.886Z,25.30
2023-05-21T12:15:13.479Z,25.47
2023-05-21T12:16:15.210Z,25.20
2023-05-21T12:17:25.304Z,25.47
2023-05-21T12:18:26.981Z,25.23
2023-05-21T12:19:29.269Z,25.30
2023-05-21T12:20:31.136Z,25.32
2023-05-21T12:21:33.288Z,25.40
2023-05-21T12:22:34.985Z,25.30
2023-05-21T12:23:36.718Z,25.41
2023-05-21T12:24:39.202Z,25.43
2023-05-21T12:25:40.997Z,25.65
2023-05-21T12:26:44.526Z,25.62
2023-05-21T12:27:46.636Z,25.51
2023-05-21T12:28:48.945Z,25.28
2023-05-21T12:29:51.829Z,25.31
2023-05-21T12:30:53.658Z,25.30
2023-05-21T12:31:59.479Z,25.10
2023-05-21T12:33:02.561Z,25.17
2023-05-21T12:34:04.553Z,25.03
2023-05-21T12:35:06.474Z,25.04
2023-05-21T12:36:08.150Z,24.87
2023-05-21T12:37:35.685Z,24.80
2023-05-21T12:38:37.495Z,25.17
2023-05-21T12:39:40.442Z,25.23
2023-05-21T12:40:43.659Z,25.08
2023-05-21T12:41:45.284Z,25.08
2023-05-21T12:42:46.984Z,25.01
2023-05-21T12:43:49.265Z,24.92
2023-05-21T12:44:52.014Z,24.94
2023-05-21T12:45:53.686Z,25.28
2023-05-21T12:46:55.615Z,25.24
2023-05-21T12:47:57.395Z,25.27
2023-05-21T12:48:59.025Z,25.21
2023-05-21T12:50:01.925Z,24.89
2023-05-21T12:51:03.642Z,24.94
2023-05-21T12:52:10.495Z,25.02
2023-05-21T12:53:12.378Z,25.07
2023-05-21T12:54:14.383Z,25.19
2023-05-21T12:55:17.192Z,25.16
2023-05-21T12:56:18.840Z,25.28
2023-05-21T12:57:25.042Z,25.21
2023-05-21T12:58:26.676Z,25.18
2023-05-21T12:59:28.295Z,25.22
2023-05-21T13:00:29.975Z,25.46
2023-05-21T13:01:31.627Z,25.30
2023-05-21T13:02:35.598Z,25.33
2023-05-21T13:03:38.257Z,25.37
2023-05-21T13:04:39.969Z,25.44
2023-05-21T13:05:42.229Z,25.27
2023-05-21T13:06:44.087Z,25.47
2023-05-21T13:07:48.888Z,25.49
2023-05-21T13:08:50.538Z,25.58
2023-05-21T13:09:53.441Z,25.44
2023-05-21T13:10:55.656Z,25.42
2023-05-21T13:11:57.205Z,25.18
2023-05-21T13:12:58.985Z,25.35
2023-05-21T13:14:00.771Z,25.25
2023-05-21T13:15:04.491Z,24.88
2023-05-21T13:16:06.420Z,24.96
2023-05-21T13:17:08.156Z,24.92
2023-05-21T13:18:09.879Z,25.01
2023-05-21T13:19:11.615Z,24.97
2023-05-21T13:20:20.457Z,25.02
2023-05-21T13:21:22.234Z,25.27
2023-05-21T13:22:23.854Z,25.21
2023-05-21T13:23:25.609Z,25.38
2023-05-21T13:24:27.259Z,25.41
2023-05-21T13:25:29.332Z,25.21
2023-05-21T13:26:31.092Z,25.21
2023-05-21T13:27:32.733Z,25.20
2023-05-21T13:28:34.371Z,25.01
2023-05-21T13:29:38.020Z,25.16
2023-05-21T13:30:39.852Z,25.10
2023-05-21T13:31:42.321Z,25.08
2023-05-21T13:32:44.215Z,25.12
2023-05-21T13:33:45.937Z,24.90
2023-05-21T13:34:48.057Z,24.88
2023-05-21T13:35:51.334Z,24.90
2023-05-21T13:36:52.951Z,24.94
2023-05-21T13:37:54.595Z,25.02
2023-05-21T13:38:56.437Z,25.21
2023-05-21T13:39:58.184Z,25.28
2023-05-21T13:40:59.791Z,25.22
2023-05-21T13:42:02.238Z,25.23
2023-05-21T13:43:03.875Z,25.07
2023-05-21T13:44:05.676Z,24.95